sensor_id;sensor_type;location;lat;lon;timestamp;P1;durP1;ratioP1;P2;durP2;ratioP2
2061;SDS011;11070;51.336;12.340;2022-08-07T00:01:42;4.20;;;3.80;;
2061;SDS011;11070;51.336;12.340;2022-08-07T00:04:07;4.03;;;3.63;;
2061;SDS011;11070;51.336;12.340;2022-08-07T00:06:33;3.53;;;3.23;;
2061;SDS011;11070;51.336;12.340;2022-08-07T00:08:59;3.53;;;3.23;;
2061;SDS011;11070;51.336;12.340;2022-08-07T00:11:26;3.67;;;3.20;;
2061;SDS011;11070;51.336;12.340;2022-08-07T00:13:51;4.23;;;3.87;;
2061;SDS011;11070;51.336;12.340;2022-08-07T00:16:17;3.70;;;3.13;;
2061;SDS011;11070;51.336;12.340;2022-08-07T00:18:43;7.93;;;3.53;;
2061;SDS011;11070;51.336;12.340;2022-08-07T00:21:09;3.33;;;3.03;;
2061;SDS011;11070;51.336;12.340;2022-08-07T00:23:36;2.70;;;2.50;;
2061;SDS011;11070;51.336;12.340;2022-08-07T00:26:04;3.05;;;2.85;;
2061;SDS011;11070;51.336;12.340;2022-08-07T00:28:31;4.30;;;2.70;;
2061;SDS011;11070;51.336;12.340;2022-08-07T00:30:58;3.25;;;2.88;;
2061;SDS011;11070;51.336;12.340;2022-08-07T00:33:24;3.10;;;2.90;;
2061;SDS011;11070;51.336;12.340;2022-08-07T00:35:53;2.90;;;2.70;;
2061;SDS011;11070;51.336;12.340;2022-08-07T00:38:19;3.13;;;2.83;;
2061;SDS011;11070;51.336;12.340;2022-08-07T00:40:45;3.30;;;2.97;;
2061;SDS011;11070;51.336;12.340;2022-08-07T00:43:12;3.20;;;2.90;;
2061;SDS011;11070;51.336;12.340;2022-08-07T00:45:38;5.40;;;2.92;;
2061;SDS011;11070;51.336;12.340;2022-08-07T00:48:06;2.90;;;2.70;;
2061;SDS011;11070;51.336;12.340;2022-08-07T00:50:32;2.33;;;2.22;;
2061;SDS011;11070;51.336;12.340;2022-08-07T00:52:58;2.37;;;2.17;;
2061;SDS011;11070;51.336;12.340;2022-08-07T00:55:24;3.83;;;2.50;;
2061;SDS011;11070;51.336;12.340;2022-08-07T00:57:50;3.97;;;2.88;;
2061;SDS011;11070;51.336;12.340;2022-08-07T01:00:16;5.00;;;2.70;;
2061;SDS011;11070;51.336;12.340;2022-08-07T01:02:43;2.38;;;2.20;;
2061;SDS011;11070;51.336;12.340;2022-08-07T01:05:09;2.75;;;2.55;;
2061;SDS011;11070;51.336;12.340;2022-08-07T01:07:36;2.75;;;2.10;;
2061;SDS011;11070;51.336;12.340;2022-08-07T01:10:03;2.38;;;2.28;;
2061;SDS011;11070;51.336;12.340;2022-08-07T01:12:29;3.08;;;2.35;;
2061;SDS011;11070;51.336;12.340;2022-08-07T01:14:55;2.53;;;2.33;;
2061;SDS011;11070;51.336;12.340;2022-08-07T01:17:25;2.63;;;2.15;;
2061;SDS011;11070;51.336;12.340;2022-08-07T01:19:51;2.47;;;2.28;;
2061;SDS011;11070;51.336;12.340;2022-08-07T01:22:19;3.25;;;2.40;;
2061;SDS011;11070;51.336;12.340;2022-08-07T01:24:45;2.53;;;2.33;;
2061;SDS011;11070;51.336;12.340;2022-08-07T01:27:11;2.95;;;2.75;;
2061;SDS011;11070;51.336;12.340;2022-08-07T01:29:38;2.38;;;2.28;;
2061;SDS011;11070;51.336;12.340;2022-08-07T01:32:04;2.80;;;2.60;;
2061;SDS011;11070;51.336;12.340;2022-08-07T01:34:30;2.75;;;2.55;;
2061;SDS011;11070;51.336;12.340;2022-08-07T01:36:57;2.30;;;2.20;;
2061;SDS011;11070;51.336;12.340;2022-08-07T01:39:24;2.58;;;2.38;;
2061;SDS011;11070;51.336;12.340;2022-08-07T01:41:51;2.53;;;2.20;;
2061;SDS011;11070;51.336;12.340;2022-08-07T01:44:17;2.42;;;2.22;;
2061;SDS011;11070;51.336;12.340;2022-08-07T01:46:43;2.30;;;2.20;;
2061;SDS011;11070;51.336;12.340;2022-08-07T01:49:09;2.60;;;2.40;;
2061;SDS011;11070;51.336;12.340;2022-08-07T01:51:36;2.60;;;2.40;;
2061;SDS011;11070;51.336;12.340;2022-08-07T01:54:06;2.50;;;2.40;;
2061;SDS011;11070;51.336;12.340;2022-08-07T01:56:42;4.25;;;2.47;;
2061;SDS011;11070;51.336;12.340;2022-08-07T01:59:25;2.95;;;2.67;;
2061;SDS011;11070;51.336;12.340;2022-08-07T02:01:55;2.92;;;2.55;;
2061;SDS011;11070;51.336;12.340;2022-08-07T02:04:33;2.80;;;2.60;;
2061;SDS011;11070;51.336;12.340;2022-08-07T02:07:05;2.55;;;2.40;;
2061;SDS011;11070;51.336;12.340;2022-08-07T02:09:32;2.58;;;2.38;;
2061;SDS011;11070;51.336;12.340;2022-08-07T02:11:58;2.60;;;2.40;;
2061;SDS011;11070;51.336;12.340;2022-08-07T02:14:41;2.25;;;2.15;;
2061;SDS011;11070;51.336;12.340;2022-08-07T02:17:12;2.38;;;2.17;;
2061;SDS011;11070;51.336;12.340;2022-08-07T02:19:43;2.40;;;2.30;;
2061;SDS011;11070;51.336;12.340;2022-08-07T02:22:12;2.28;;;2.17;;
2061;SDS011;11070;51.336;12.340;2022-08-07T02:24:43;2.60;;;2.40;;
2061;SDS011;11070;51.336;12.340;2022-08-07T02:27:14;7.82;;;2.80;;
2061;SDS011;11070;51.336;12.340;2022-08-07T02:29:42;2.67;;;2.58;;
2061;SDS011;11070;51.336;12.340;2022-08-07T02:32:10;2.70;;;2.50;;
2061;SDS011;11070;51.336;12.340;2022-08-07T02:34:37;2.70;;;2.50;;
2061;SDS011;11070;51.336;12.340;2022-08-07T02:37:04;3.03;;;2.83;;
2061;SDS011;11070;51.336;12.340;2022-08-07T02:39:33;2.70;;;2.50;;
2061;SDS011;11070;51.336;12.340;2022-08-07T02:42:01;3.95;;;2.72;;
2061;SDS011;11070;51.336;12.340;2022-08-07T02:44:27;3.22;;;3.00;;
2061;SDS011;11070;51.336;12.340;2022-08-07T02:46:55;3.30;;;3.00;;
2061;SDS011;11070;51.336;12.340;2022-08-07T02:49:23;4.65;;;3.45;;
2061;SDS011;11070;51.336;12.340;2022-08-07T02:51:50;4.22;;;2.50;;
2061;SDS011;11070;51.336;12.340;2022-08-07T02:54:19;3.45;;;2.70;;
2061;SDS011;11070;51.336;12.340;2022-08-07T02:56:47;2.95;;;2.75;;
2061;SDS011;11070;51.336;12.340;2022-08-07T02:59:16;2.85;;;2.65;;
2061;SDS011;11070;51.336;12.340;2022-08-07T03:01:43;3.30;;;2.72;;
2061;SDS011;11070;51.336;12.340;2022-08-07T03:04:10;2.40;;;2.30;;
2061;SDS011;11070;51.336;12.340;2022-08-07T03:06:38;2.80;;;2.50;;
2061;SDS011;11070;51.336;12.340;2022-08-07T03:09:05;3.15;;;2.85;;
2061;SDS011;11070;51.336;12.340;2022-08-07T03:11:32;3.53;;;2.70;;
2061;SDS011;11070;51.336;12.340;2022-08-07T03:13:59;2.70;;;2.50;;
2061;SDS011;11070;51.336;12.340;2022-08-07T03:16:28;2.83;;;2.40;;
2061;SDS011;11070;51.336;12.340;2022-08-07T03:18:55;3.15;;;2.70;;
2061;SDS011;11070;51.336;12.340;2022-08-07T03:21:22;2.90;;;2.70;;
2061;SDS011;11070;51.336;12.340;2022-08-07T03:23:49;3.95;;;2.70;;
2061;SDS011;11070;51.336;12.340;2022-08-07T03:26:18;2.97;;;2.67;;
2061;SDS011;11070;51.336;12.340;2022-08-07T03:28:49;3.20;;;2.90;;
2061;SDS011;11070;51.336;12.340;2022-08-07T03:31:15;3.03;;;2.83;;
2061;SDS011;11070;51.336;12.340;2022-08-07T03:33:50;3.03;;;2.80;;
2061;SDS011;11070;51.336;12.340;2022-08-07T03:36:25;3.05;;;2.85;;
2061;SDS011;11070;51.336;12.340;2022-08-07T03:38:53;2.60;;;2.40;;
2061;SDS011;11070;51.336;12.340;2022-08-07T03:41:22;3.47;;;3.17;;
2061;SDS011;11070;51.336;12.340;2022-08-07T03:43:49;3.17;;;2.97;;
2061;SDS011;11070;51.336;12.340;2022-08-07T03:46:15;3.03;;;2.83;;
2061;SDS011;11070;51.336;12.340;2022-08-07T03:48:41;2.83;;;2.63;;
2061;SDS011;11070;51.336;12.340;2022-08-07T03:51:07;4.30;;;2.90;;
2061;SDS011;11070;51.336;12.340;2022-08-07T03:53:36;3.30;;;3.00;;
2061;SDS011;11070;51.336;12.340;2022-08-07T03:56:03;2.95;;;2.75;;
2061;SDS011;11070;51.336;12.340;2022-08-07T03:58:29;3.20;;;3.00;;
2061;SDS011;11070;51.336;12.340;2022-08-07T04:00:56;3.65;;;3.15;;
2061;SDS011;11070;51.336;12.340;2022-08-07T04:03:23;3.00;;;2.90;;
2061;SDS011;11070;51.336;12.340;2022-08-07T04:05:49;3.20;;;3.00;;
2061;SDS011;11070;51.336;12.340;2022-08-07T04:08:14;2.97;;;2.70;;
2061;SDS011;11070;51.336;12.340;2022-08-07T04:10:41;2.90;;;2.60;;
2061;SDS011;11070;51.336;12.340;2022-08-07T04:13:10;3.00;;;2.80;;
2061;SDS011;11070;51.336;12.340;2022-08-07T04:15:37;3.53;;;3.22;;
2061;SDS011;11070;51.336;12.340;2022-08-07T04:18:03;3.43;;;3.00;;
2061;SDS011;11070;51.336;12.340;2022-08-07T04:20:29;3.50;;;2.80;;
2061;SDS011;11070;51.336;12.340;2022-08-07T04:22:54;3.20;;;3.00;;
2061;SDS011;11070;51.336;12.340;2022-08-07T04:25:22;3.00;;;2.80;;
2061;SDS011;11070;51.336;12.340;2022-08-07T04:27:48;3.25;;;3.05;;
2061;SDS011;11070;51.336;12.340;2022-08-07T04:30:14;3.30;;;3.00;;
2061;SDS011;11070;51.336;12.340;2022-08-07T04:32:39;2.70;;;2.60;;
2061;SDS011;11070;51.336;12.340;2022-08-07T04:35:06;3.22;;;3.03;;
2061;SDS011;11070;51.336;12.340;2022-08-07T04:37:33;3.03;;;2.75;;
2061;SDS011;11070;51.336;12.340;2022-08-07T04:39:59;2.90;;;2.70;;
2061;SDS011;11070;51.336;12.340;2022-08-07T04:42:26;3.38;;;2.90;;
2061;SDS011;11070;51.336;12.340;2022-08-07T04:45:00;5.00;;;3.38;;
2061;SDS011;11070;51.336;12.340;2022-08-07T04:50:21;3.30;;;3.10;;
2061;SDS011;11070;51.336;12.340;2022-08-07T04:53:20;3.00;;;2.78;;
2061;SDS011;11070;51.336;12.340;2022-08-07T04:56:35;4.10;;;3.08;;
2061;SDS011;11070;51.336;12.340;2022-08-07T04:59:05;2.55;;;2.35;;
2061;SDS011;11070;51.336;12.340;2022-08-07T05:01:57;3.45;;;2.60;;
2061;SDS011;11070;51.336;12.340;2022-08-07T05:04:45;3.33;;;3.13;;
2061;SDS011;11070;51.336;12.340;2022-08-07T05:07:33;2.80;;;2.60;;
2061;SDS011;11070;51.336;12.340;2022-08-07T05:12:53;3.35;;;3.15;;
2061;SDS011;11070;51.336;12.340;2022-08-07T05:15:35;3.15;;;2.95;;
2061;SDS011;11070;51.336;12.340;2022-08-07T05:18:14;3.70;;;3.40;;
2061;SDS011;11070;51.336;12.340;2022-08-07T05:20:48;3.60;;;2.90;;
2061;SDS011;11070;51.336;12.340;2022-08-07T05:23:24;3.25;;;3.00;;
2061;SDS011;11070;51.336;12.340;2022-08-07T05:26:15;3.30;;;3.10;;
2061;SDS011;11070;51.336;12.340;2022-08-07T05:28:45;3.72;;;3.45;;
2061;SDS011;11070;51.336;12.340;2022-08-07T05:31:15;3.50;;;3.30;;
2061;SDS011;11070;51.336;12.340;2022-08-07T05:33:46;3.33;;;3.13;;
2061;SDS011;11070;51.336;12.340;2022-08-07T05:36:16;3.50;;;3.20;;
2061;SDS011;11070;51.336;12.340;2022-08-07T05:38:44;3.60;;;3.30;;
2061;SDS011;11070;51.336;12.340;2022-08-07T05:41:11;3.47;;;3.28;;
2061;SDS011;11070;51.336;12.340;2022-08-07T05:43:38;3.17;;;2.97;;
2061;SDS011;11070;51.336;12.340;2022-08-07T05:46:05;3.08;;;2.88;;
2061;SDS011;11070;51.336;12.340;2022-08-07T05:48:31;3.78;;;3.47;;
2061;SDS011;11070;51.336;12.340;2022-08-07T05:50:58;2.97;;;2.80;;
2061;SDS011;11070;51.336;12.340;2022-08-07T05:53:25;3.00;;;2.80;;
2061;SDS011;11070;51.336;12.340;2022-08-07T05:55:52;3.47;;;3.28;;
2061;SDS011;11070;51.336;12.340;2022-08-07T05:58:20;3.05;;;2.85;;
2061;SDS011;11070;51.336;12.340;2022-08-07T06:00:48;2.80;;;2.60;;
2061;SDS011;11070;51.336;12.340;2022-08-07T06:03:15;2.90;;;2.70;;
2061;SDS011;11070;51.336;12.340;2022-08-07T06:05:44;2.40;;;2.20;;
2061;SDS011;11070;51.336;12.340;2022-08-07T06:08:11;3.15;;;2.45;;
2061;SDS011;11070;51.336;12.340;2022-08-07T06:10:37;2.50;;;2.40;;
2061;SDS011;11070;51.336;12.340;2022-08-07T06:13:03;2.92;;;1.95;;
2061;SDS011;11070;51.336;12.340;2022-08-07T06:15:29;2.78;;;1.90;;
2061;SDS011;11070;51.336;12.340;2022-08-07T06:17:58;2.28;;;2.17;;
2061;SDS011;11070;51.336;12.340;2022-08-07T06:20:25;2.00;;;1.90;;
2061;SDS011;11070;51.336;12.340;2022-08-07T06:22:52;1.80;;;1.70;;
2061;SDS011;11070;51.336;12.340;2022-08-07T06:25:18;2.00;;;1.85;;
2061;SDS011;11070;51.336;12.340;2022-08-07T06:27:44;2.13;;;2.03;;
2061;SDS011;11070;51.336;12.340;2022-08-07T06:30:10;2.20;;;1.83;;
2061;SDS011;11070;51.336;12.340;2022-08-07T06:32:36;2.05;;;1.95;;
2061;SDS011;11070;51.336;12.340;2022-08-07T06:35:02;3.50;;;1.90;;
2061;SDS011;11070;51.336;12.340;2022-08-07T06:37:28;1.73;;;1.63;;
2061;SDS011;11070;51.336;12.340;2022-08-07T06:39:54;1.80;;;1.70;;
2061;SDS011;11070;51.336;12.340;2022-08-07T06:42:21;1.90;;;1.80;;
2061;SDS011;11070;51.336;12.340;2022-08-07T06:44:50;4.53;;;1.73;;
2061;SDS011;11070;51.336;12.340;2022-08-07T06:47:18;4.15;;;1.80;;
2061;SDS011;11070;51.336;12.340;2022-08-07T06:49:44;1.83;;;1.73;;
2061;SDS011;11070;51.336;12.340;2022-08-07T06:52:10;1.90;;;1.80;;
2061;SDS011;11070;51.336;12.340;2022-08-07T06:54:37;2.05;;;1.75;;
2061;SDS011;11070;51.336;12.340;2022-08-07T06:57:04;3.10;;;1.52;;
2061;SDS011;11070;51.336;12.340;2022-08-07T06:59:32;1.65;;;1.50;;
2061;SDS011;11070;51.336;12.340;2022-08-07T07:02:02;1.73;;;1.60;;
2061;SDS011;11070;51.336;12.340;2022-08-07T07:04:30;4.30;;;1.75;;
2061;SDS011;11070;51.336;12.340;2022-08-07T07:06:56;3.90;;;1.90;;
2061;SDS011;11070;51.336;12.340;2022-08-07T07:09:26;2.50;;;1.92;;
2061;SDS011;11070;51.336;12.340;2022-08-07T07:14:40;1.90;;;1.80;;
2061;SDS011;11070;51.336;12.340;2022-08-07T07:17:12;1.90;;;1.70;;
2061;SDS011;11070;51.336;12.340;2022-08-07T07:19:45;3.17;;;1.70;;
2061;SDS011;11070;51.336;12.340;2022-08-07T07:22:15;4.40;;;2.10;;
2061;SDS011;11070;51.336;12.340;2022-08-07T07:24:42;1.90;;;1.80;;
2061;SDS011;11070;51.336;12.340;2022-08-07T07:27:10;2.70;;;1.80;;
2061;SDS011;11070;51.336;12.340;2022-08-07T07:29:49;2.15;;;1.60;;
2061;SDS011;11070;51.336;12.340;2022-08-07T07:32:18;2.53;;;1.55;;
2061;SDS011;11070;51.336;12.340;2022-08-07T07:34:48;2.08;;;1.65;;
2061;SDS011;11070;51.336;12.340;2022-08-07T07:37:23;1.85;;;1.75;;
2061;SDS011;11070;51.336;12.340;2022-08-07T07:39:51;2.47;;;2.28;;
2061;SDS011;11070;51.336;12.340;2022-08-07T07:42:19;2.20;;;1.55;;
2061;SDS011;11070;51.336;12.340;2022-08-07T07:44:47;2.13;;;2.00;;
2061;SDS011;11070;51.336;12.340;2022-08-07T07:47:14;1.80;;;1.70;;
2061;SDS011;11070;51.336;12.340;2022-08-07T07:49:41;3.35;;;1.85;;
2061;SDS011;11070;51.336;12.340;2022-08-07T07:52:09;1.80;;;1.70;;
2061;SDS011;11070;51.336;12.340;2022-08-07T07:54:37;3.78;;;2.15;;
2061;SDS011;11070;51.336;12.340;2022-08-07T07:57:07;1.75;;;1.65;;
2061;SDS011;11070;51.336;12.340;2022-08-07T07:59:35;2.05;;;1.38;;
2061;SDS011;11070;51.336;12.340;2022-08-07T08:02:04;1.30;;;1.20;;
2061;SDS011;11070;51.336;12.340;2022-08-07T08:04:31;1.70;;;1.30;;
2061;SDS011;11070;51.336;12.340;2022-08-07T08:07:00;1.58;;;1.48;;
2061;SDS011;11070;51.336;12.340;2022-08-07T08:09:26;1.60;;;1.50;;
2061;SDS011;11070;51.336;12.340;2022-08-07T08:11:53;2.80;;;1.48;;
2061;SDS011;11070;51.336;12.340;2022-08-07T08:14:21;1.42;;;1.25;;
2061;SDS011;11070;51.336;12.340;2022-08-07T08:16:48;1.42;;;1.20;;
2061;SDS011;11070;51.336;12.340;2022-08-07T08:19:16;1.63;;;1.27;;
2061;SDS011;11070;51.336;12.340;2022-08-07T08:21:51;2.75;;;1.30;;
2061;SDS011;11070;51.336;12.340;2022-08-07T08:24:43;1.50;;;1.40;;
2061;SDS011;11070;51.336;12.340;2022-08-07T08:27:36;1.20;;;1.10;;
2061;SDS011;11070;51.336;12.340;2022-08-07T08:30:07;1.70;;;1.37;;
2061;SDS011;11070;51.336;12.340;2022-08-07T08:32:37;1.90;;;0.93;;
2061;SDS011;11070;51.336;12.340;2022-08-07T08:35:07;1.23;;;0.80;;
2061;SDS011;11070;51.336;12.340;2022-08-07T08:37:36;1.57;;;1.00;;
2061;SDS011;11070;51.336;12.340;2022-08-07T08:40:08;1.03;;;0.93;;
2061;SDS011;11070;51.336;12.340;2022-08-07T08:42:40;1.07;;;0.90;;
2061;SDS011;11070;51.336;12.340;2022-08-07T08:45:19;1.73;;;0.90;;
2061;SDS011;11070;51.336;12.340;2022-08-07T08:48:00;2.93;;;0.73;;
2061;SDS011;11070;51.336;12.340;2022-08-07T08:50:47;0.90;;;0.80;;
2061;SDS011;11070;51.336;12.340;2022-08-07T08:56:05;1.00;;;0.90;;
2061;SDS011;11070;51.336;12.340;2022-08-07T08:58:48;0.90;;;0.80;;
2061;SDS011;11070;51.336;12.340;2022-08-07T09:04:03;0.90;;;0.70;;
2061;SDS011;11070;51.336;12.340;2022-08-07T09:06:34;1.20;;;0.80;;
2061;SDS011;11070;51.336;12.340;2022-08-07T09:12:15;2.10;;;0.90;;
2061;SDS011;11070;51.336;12.340;2022-08-07T09:25:38;2.20;;;0.80;;
2061;SDS011;11070;51.336;12.340;2022-08-07T09:28:26;1.20;;;0.90;;
2061;SDS011;11070;51.336;12.340;2022-08-07T09:31:01;2.80;;;0.77;;
2061;SDS011;11070;51.336;12.340;2022-08-07T09:33:46;1.20;;;0.80;;
2061;SDS011;11070;51.336;12.340;2022-08-07T09:42:00;0.97;;;0.80;;
2061;SDS011;11070;51.336;12.340;2022-08-07T09:47:50;1.53;;;0.90;;
2061;SDS011;11070;51.336;12.340;2022-08-07T09:50:34;1.67;;;0.87;;
2061;SDS011;11070;51.336;12.340;2022-08-07T09:53:04;1.77;;;0.70;;
2061;SDS011;11070;51.336;12.340;2022-08-07T10:09:51;0.80;;;0.60;;
2061;SDS011;11070;51.336;12.340;2022-08-07T10:12:48;1.00;;;0.70;;
2061;SDS011;11070;51.336;12.340;2022-08-07T10:15:31;1.37;;;0.80;;
2061;SDS011;11070;51.336;12.340;2022-08-07T10:21:09;1.37;;;0.80;;
2061;SDS011;11070;51.336;12.340;2022-08-07T10:24:13;1.00;;;0.90;;
2061;SDS011;11070;51.336;12.340;2022-08-07T10:29:35;1.27;;;0.97;;
2061;SDS011;11070;51.336;12.340;2022-08-07T10:35:21;1.60;;;0.70;;
2061;SDS011;11070;51.336;12.340;2022-08-07T10:46:46;2.50;;;0.80;;
2061;SDS011;11070;51.336;12.340;2022-08-07T10:49:21;0.80;;;0.80;;
2061;SDS011;11070;51.336;12.340;2022-08-07T10:54:43;1.83;;;0.80;;
2061;SDS011;11070;51.336;12.340;2022-08-07T10:59:50;1.40;;;0.80;;
2061;SDS011;11070;51.336;12.340;2022-08-07T11:02:21;2.80;;;0.70;;
2061;SDS011;11070;51.336;12.340;2022-08-07T11:10:40;1.23;;;0.80;;
2061;SDS011;11070;51.336;12.340;2022-08-07T11:16:07;1.00;;;0.90;;
2061;SDS011;11070;51.336;12.340;2022-08-07T11:18:53;0.80;;;0.70;;
2061;SDS011;11070;51.336;12.340;2022-08-07T11:24:00;0.93;;;0.63;;
2061;SDS011;11070;51.336;12.340;2022-08-07T11:26:41;2.60;;;0.80;;
2061;SDS011;11070;51.336;12.340;2022-08-07T11:32:15;0.90;;;0.80;;
2061;SDS011;11070;51.336;12.340;2022-08-07T11:40:28;1.37;;;0.60;;
2061;SDS011;11070;51.336;12.340;2022-08-07T11:43:03;1.30;;;0.83;;
2061;SDS011;11070;51.336;12.340;2022-08-07T11:50:48;0.93;;;0.83;;
2061;SDS011;11070;51.336;12.340;2022-08-07T11:56:14;1.10;;;0.80;;
2061;SDS011;11070;51.336;12.340;2022-08-07T11:59:08;0.80;;;0.70;;
2061;SDS011;11070;51.336;12.340;2022-08-07T12:07:26;1.37;;;0.73;;
2061;SDS011;11070;51.336;12.340;2022-08-07T12:09:59;0.80;;;0.70;;
2061;SDS011;11070;51.336;12.340;2022-08-07T12:12:36;1.10;;;0.70;;
2061;SDS011;11070;51.336;12.340;2022-08-07T12:15:23;0.87;;;0.80;;
2061;SDS011;11070;51.336;12.340;2022-08-07T12:20:59;0.80;;;0.80;;
2061;SDS011;11070;51.336;12.340;2022-08-07T12:26:25;0.83;;;0.80;;
2061;SDS011;11070;51.336;12.340;2022-08-07T12:31:38;1.80;;;0.80;;
2061;SDS011;11070;51.336;12.340;2022-08-07T12:34:05;1.57;;;0.63;;
2061;SDS011;11070;51.336;12.340;2022-08-07T12:36:32;0.90;;;0.80;;
2061;SDS011;11070;51.336;12.340;2022-08-07T12:39:03;1.23;;;0.90;;
2061;SDS011;11070;51.336;12.340;2022-08-07T12:41:32;0.80;;;0.80;;
2061;SDS011;11070;51.336;12.340;2022-08-07T12:44:00;0.80;;;0.70;;
2061;SDS011;11070;51.336;12.340;2022-08-07T12:52:50;1.20;;;0.90;;
2061;SDS011;11070;51.336;12.340;2022-08-07T12:55:42;1.00;;;0.80;;
2061;SDS011;11070;51.336;12.340;2022-08-07T12:58:13;1.10;;;0.80;;
2061;SDS011;11070;51.336;12.340;2022-08-07T13:09:10;2.23;;;1.10;;
2061;SDS011;11070;51.336;12.340;2022-08-07T13:14:18;2.43;;;1.00;;
2061;SDS011;11070;51.336;12.340;2022-08-07T13:16:54;3.27;;;0.80;;
2061;SDS011;11070;51.336;12.340;2022-08-07T13:19:26;1.60;;;1.10;;
2061;SDS011;11070;51.336;12.340;2022-08-07T13:22:18;1.67;;;0.77;;
2061;SDS011;11070;51.336;12.340;2022-08-07T13:24:59;1.17;;;0.80;;
2061;SDS011;11070;51.336;12.340;2022-08-07T13:27:40;1.33;;;0.80;;
2061;SDS011;11070;51.336;12.340;2022-08-07T13:30:12;1.20;;;0.80;;
2061;SDS011;11070;51.336;12.340;2022-08-07T13:35:49;2.17;;;0.90;;
2061;SDS011;11070;51.336;12.340;2022-08-07T13:44:03;2.17;;;0.80;;
2061;SDS011;11070;51.336;12.340;2022-08-07T13:46:32;1.10;;;0.70;;
2061;SDS011;11070;51.336;12.340;2022-08-07T13:49:02;0.93;;;0.83;;
2061;SDS011;11070;51.336;12.340;2022-08-07T13:51:30;1.77;;;0.80;;
2061;SDS011;11070;51.336;12.340;2022-08-07T13:53:59;0.80;;;0.70;;
2061;SDS011;11070;51.336;12.340;2022-08-07T13:56:28;1.80;;;0.70;;
2061;SDS011;11070;51.336;12.340;2022-08-07T13:58:56;1.97;;;0.80;;
2061;SDS011;11070;51.336;12.340;2022-08-07T14:01:30;0.90;;;0.70;;
2061;SDS011;11070;51.336;12.340;2022-08-07T14:04:12;1.50;;;0.70;;
2061;SDS011;11070;51.336;12.340;2022-08-07T14:06:41;2.23;;;0.90;;
2061;SDS011;11070;51.336;12.340;2022-08-07T14:09:23;1.73;;;0.90;;
2061;SDS011;11070;51.336;12.340;2022-08-07T14:11:53;0.83;;;0.50;;
2061;SDS011;11070;51.336;12.340;2022-08-07T14:14:23;1.30;;;0.83;;
2061;SDS011;11070;51.336;12.340;2022-08-07T14:16:54;0.90;;;0.70;;
2061;SDS011;11070;51.336;12.340;2022-08-07T14:19:34;1.77;;;0.70;;
2061;SDS011;11070;51.336;12.340;2022-08-07T14:22:02;2.50;;;0.80;;
2061;SDS011;11070;51.336;12.340;2022-08-07T14:27:03;1.00;;;0.60;;
2061;SDS011;11070;51.336;12.340;2022-08-07T14:29:32;0.90;;;0.60;;
2061;SDS011;11070;51.336;12.340;2022-08-07T14:32:04;0.80;;;0.63;;
2061;SDS011;11070;51.336;12.340;2022-08-07T14:34:33;1.40;;;0.60;;
2061;SDS011;11070;51.336;12.340;2022-08-07T14:37:06;1.57;;;0.80;;
2061;SDS011;11070;51.336;12.340;2022-08-07T14:39:37;1.67;;;0.93;;
2061;SDS011;11070;51.336;12.340;2022-08-07T14:42:08;0.90;;;0.70;;
2061;SDS011;11070;51.336;12.340;2022-08-07T14:44:36;1.70;;;1.20;;
2061;SDS011;11070;51.336;12.340;2022-08-07T14:47:10;1.47;;;0.70;;
2061;SDS011;11070;51.336;12.340;2022-08-07T14:49:42;1.00;;;0.80;;
2061;SDS011;11070;51.336;12.340;2022-08-07T14:52:13;1.17;;;0.87;;
2061;SDS011;11070;51.336;12.340;2022-08-07T14:54:40;2.70;;;0.80;;
2061;SDS011;11070;51.336;12.340;2022-08-07T14:57:11;1.10;;;0.90;;
2061;SDS011;11070;51.336;12.340;2022-08-07T14:59:39;1.73;;;0.90;;
2061;SDS011;11070;51.336;12.340;2022-08-07T15:02:10;0.97;;;0.63;;
2061;SDS011;11070;51.336;12.340;2022-08-07T15:04:43;0.83;;;0.63;;
2061;SDS011;11070;51.336;12.340;2022-08-07T15:07:15;2.33;;;1.13;;
2061;SDS011;11070;51.336;12.340;2022-08-07T15:09:46;1.00;;;0.90;;
2061;SDS011;11070;51.336;12.340;2022-08-07T15:12:24;1.10;;;0.60;;
2061;SDS011;11070;51.336;12.340;2022-08-07T15:15:00;0.80;;;0.70;;
2061;SDS011;11070;51.336;12.340;2022-08-07T15:17:43;0.80;;;0.70;;
2061;SDS011;11070;51.336;12.340;2022-08-07T15:20:16;1.90;;;0.80;;
2061;SDS011;11070;51.336;12.340;2022-08-07T15:22:49;0.90;;;0.70;;
2061;SDS011;11070;51.336;12.340;2022-08-07T15:25:25;0.90;;;0.60;;
2061;SDS011;11070;51.336;12.340;2022-08-07T15:27:58;1.47;;;0.80;;
2061;SDS011;11070;51.336;12.340;2022-08-07T15:30:26;0.90;;;0.70;;
2061;SDS011;11070;51.336;12.340;2022-08-07T15:32:53;2.50;;;0.83;;
2061;SDS011;11070;51.336;12.340;2022-08-07T15:35:20;0.90;;;0.80;;
2061;SDS011;11070;51.336;12.340;2022-08-07T15:37:51;1.10;;;0.60;;
2061;SDS011;11070;51.336;12.340;2022-08-07T15:40:22;1.00;;;0.70;;
2061;SDS011;11070;51.336;12.340;2022-08-07T15:43:03;1.93;;;1.03;;
2061;SDS011;11070;51.336;12.340;2022-08-07T15:45:31;1.60;;;1.10;;
2061;SDS011;11070;51.336;12.340;2022-08-07T15:48:07;1.93;;;1.10;;
2061;SDS011;11070;51.336;12.340;2022-08-07T15:50:42;1.20;;;0.90;;
2061;SDS011;11070;51.336;12.340;2022-08-07T15:53:18;1.30;;;0.87;;
2061;SDS011;11070;51.336;12.340;2022-08-07T15:55:52;0.80;;;0.70;;
2061;SDS011;11070;51.336;12.340;2022-08-07T16:01:14;1.33;;;0.83;;
2061;SDS011;11070;51.336;12.340;2022-08-07T16:03:55;1.20;;;1.10;;
2061;SDS011;11070;51.336;12.340;2022-08-07T16:06:32;5.13;;;1.30;;
2061;SDS011;11070;51.336;12.340;2022-08-07T16:09:16;1.93;;;0.80;;
2061;SDS011;11070;51.336;12.340;2022-08-07T16:14:51;0.80;;;0.80;;
2061;SDS011;11070;51.336;12.340;2022-08-07T16:28:45;1.57;;;0.97;;
2061;SDS011;11070;51.336;12.340;2022-08-07T16:32:01;1.87;;;0.87;;
2061;SDS011;11070;51.336;12.340;2022-08-07T16:53:42;1.40;;;1.00;;
2061;SDS011;11070;51.336;12.340;2022-08-07T17:07:08;1.33;;;1.23;;
2061;SDS011;11070;51.336;12.340;2022-08-07T17:12:27;1.20;;;1.10;;
2061;SDS011;11070;51.336;12.340;2022-08-07T17:20:42;1.53;;;1.43;;
2061;SDS011;11070;51.336;12.340;2022-08-07T17:31:45;1.30;;;1.20;;
2061;SDS011;11070;51.336;12.340;2022-08-07T17:34:15;1.73;;;1.27;;
2061;SDS011;11070;51.336;12.340;2022-08-07T17:37:00;1.40;;;1.30;;
2061;SDS011;11070;51.336;12.340;2022-08-07T17:39:57;1.60;;;1.50;;
2061;SDS011;11070;51.336;12.340;2022-08-07T17:42:36;2.40;;;1.60;;
2061;SDS011;11070;51.336;12.340;2022-08-07T17:45:09;2.20;;;1.20;;
2061;SDS011;11070;51.336;12.340;2022-08-07T17:52:59;1.30;;;1.20;;
2061;SDS011;11070;51.336;12.340;2022-08-07T17:55:29;2.40;;;1.20;;
2061;SDS011;11070;51.336;12.340;2022-08-07T17:58:06;3.00;;;1.30;;
2061;SDS011;11070;51.336;12.340;2022-08-07T18:00:38;1.53;;;1.43;;
2061;SDS011;11070;51.336;12.340;2022-08-07T18:06:07;1.63;;;1.53;;
2061;SDS011;11070;51.336;12.340;2022-08-07T18:11:19;2.93;;;1.60;;
2061;SDS011;11070;51.336;12.340;2022-08-07T18:18:50;1.40;;;1.30;;
2061;SDS011;11070;51.336;12.340;2022-08-07T18:21:30;1.30;;;1.20;;
2061;SDS011;11070;51.336;12.340;2022-08-07T18:23:59;1.60;;;1.50;;
2061;SDS011;11070;51.336;12.340;2022-08-07T18:34:46;2.03;;;1.40;;
2061;SDS011;11070;51.336;12.340;2022-08-07T18:43:19;2.77;;;1.43;;
2061;SDS011;11070;51.336;12.340;2022-08-07T18:46:04;1.70;;;1.60;;
2061;SDS011;11070;51.336;12.340;2022-08-07T18:48:41;1.57;;;1.47;;
2061;SDS011;11070;51.336;12.340;2022-08-07T18:54:08;3.37;;;3.17;;
2061;SDS011;11070;51.336;12.340;2022-08-07T18:57:11;1.70;;;1.60;;
2061;SDS011;11070;51.336;12.340;2022-08-07T19:00:15;2.70;;;2.50;;
2061;SDS011;11070;51.336;12.340;2022-08-07T19:02:51;1.90;;;1.70;;
2061;SDS011;11070;51.336;12.340;2022-08-07T19:05:32;1.80;;;1.70;;
2061;SDS011;11070;51.336;12.340;2022-08-07T19:11:08;1.57;;;1.47;;
2061;SDS011;11070;51.336;12.340;2022-08-07T19:19:03;2.13;;;1.57;;
2061;SDS011;11070;51.336;12.340;2022-08-07T19:21:42;1.80;;;1.70;;
2061;SDS011;11070;51.336;12.340;2022-08-07T19:24:26;2.03;;;1.70;;
2061;SDS011;11070;51.336;12.340;2022-08-07T19:27:19;1.70;;;1.60;;